createdAt,value
2023-05-12T00:01:50.440Z,11.30
2023-05-12T00:04:16.977Z,12.48
2023-05-12T00:06:43.524Z,12.52
2023-05-12T00:09:10.137Z,12.23
2023-05-12T00:11:38.138Z,11.55
2023-05-12T00:14:04.821Z,13.18
2023-05-12T00:16:31.632Z,13.20
2023-05-12T00:18:58.225Z,12.43
2023-05-12T00:21:24.767Z,12.77
2023-05-12T00:23:51.331Z,12.63
2023-05-12T00:26:17.934Z,13.65
2023-05-12T00:28:44.492Z,12.32
2023-05-12T00:31:11.075Z,12.57
2023-05-12T00:33:37.586Z,13.10
2023-05-12T00:36:04.737Z,13.38
2023-05-12T00:38:31.283Z,13.82
2023-05-12T00:40:57.893Z,13.43
2023-05-12T00:43:24.408Z,13.52
2023-05-12T00:45:51.185Z,12.27
2023-05-12T00:48:18.340Z,12.90
2023-05-12T00:50:45.052Z,12.15
2023-05-12T00:53:12.347Z,12.18
2023-05-12T00:55:39.031Z,12.05
2023-05-12T00:58:05.670Z,10.70
2023-05-12T01:00:32.225Z,11.27
2023-05-12T01:02:58.982Z,12.10
2023-05-12T01:05:38.935Z,10.60
2023-05-12T01:08:06.362Z,10.55
2023-05-12T01:10:33.022Z,12.02
2023-05-12T01:12:59.562Z,10.70
2023-05-12T01:15:26.240Z,10.48
2023-05-12T01:17:57.519Z,9.85
2023-05-12T01:20:26.937Z,10.27
2023-05-12T01:22:55.118Z,9.98
2023-05-12T01:25:24.017Z,9.40
2023-05-12T01:27:50.817Z,8.63
2023-05-12T01:30:19.375Z,9.38
2023-05-12T01:32:46.460Z,8.38
2023-05-12T01:35:13.041Z,8.80
2023-05-12T01:37:39.572Z,8.05
2023-05-12T01:40:06.702Z,8.15
2023-05-12T01:42:33.279Z,8.73
2023-05-12T01:44:59.828Z,7.65
2023-05-12T01:47:26.547Z,8.07
2023-05-12T01:49:54.372Z,7.47
2023-05-12T01:52:20.973Z,7.55
2023-05-12T01:54:47.592Z,6.95
2023-05-12T01:57:14.155Z,6.78
2023-05-12T01:59:40.674Z,6.40
2023-05-12T02:02:07.357Z,6.03
2023-05-12T02:04:34.631Z,6.25
2023-05-12T02:07:01.961Z,6.63
2023-05-12T02:09:28.528Z,6.82
2023-05-12T02:11:55.080Z,6.28
2023-05-12T02:14:21.659Z,6.93
2023-05-12T02:16:52.537Z,6.28
2023-05-12T02:19:20.280Z,6.20
2023-05-12T02:21:49.787Z,6.10
2023-05-12T02:24:19.125Z,5.70
2023-05-12T02:26:45.797Z,5.70
2023-05-12T02:29:12.382Z,6.07
2023-05-12T02:31:39.172Z,6.13
2023-05-12T02:34:06.765Z,5.57
2023-05-12T02:36:33.650Z,6.50
2023-05-12T02:39:00.245Z,5.28
2023-05-12T02:41:26.806Z,5.75
2023-05-12T02:43:53.759Z,5.70
2023-05-12T02:46:20.484Z,5.20
2023-05-12T02:48:47.344Z,5.75
2023-05-12T02:51:13.917Z,5.80
2023-05-12T02:53:40.612Z,6.15
2023-05-12T02:56:07.888Z,6.07
2023-05-12T02:58:35.004Z,5.50
2023-05-12T03:01:09.932Z,6.22
2023-05-12T03:03:38.193Z,5.68
2023-05-12T03:06:06.164Z,5.43
2023-05-12T03:08:32.997Z,6.13
2023-05-12T03:10:59.629Z,6.25
2023-05-12T03:13:26.129Z,5.78
2023-05-12T03:15:52.675Z,4.70
2023-05-12T03:18:19.284Z,5.22
2023-05-12T03:20:45.831Z,5.35
2023-05-12T03:23:12.349Z,4.93
2023-05-12T03:25:38.953Z,5.35
2023-05-12T03:28:05.887Z,6.40
2023-05-12T03:30:33.268Z,5.40
2023-05-12T03:33:00.202Z,5.82
2023-05-12T03:35:27.012Z,5.53
2023-05-12T03:37:53.674Z,6.60
2023-05-12T03:40:20.629Z,5.90
2023-05-12T03:42:47.357Z,7.93
2023-05-12T03:45:13.932Z,7.68
2023-05-12T03:47:40.846Z,7.90
2023-05-12T03:50:08.281Z,7.47
2023-05-12T03:52:35.097Z,8.35
2023-05-12T03:55:01.614Z,7.90
2023-05-12T03:57:28.532Z,9.35
2023-05-12T03:59:55.185Z,8.90
2023-05-12T04:02:21.921Z,8.98
2023-05-12T04:04:48.646Z,9.43
2023-05-12T04:07:15.187Z,9.07
2023-05-12T04:09:41.809Z,8.85
2023-05-12T04:12:08.409Z,9.00
2023-05-12T04:14:42.255Z,8.90
2023-05-12T04:17:09.665Z,8.68
2023-05-12T04:19:36.286Z,9.25
2023-05-12T04:22:02.833Z,8.57
2023-05-12T04:24:29.433Z,9.27
2023-05-12T04:26:57.625Z,9.07
2023-05-12T04:29:24.201Z,10.02
2023-05-12T04:31:50.803Z,9.32
2023-05-12T04:34:17.378Z,9.75
2023-05-12T04:36:44.074Z,9.70
2023-05-12T04:39:10.556Z,10.20
2023-05-12T04:41:37.064Z,9.50
2023-05-12T04:44:03.858Z,9.88
2023-05-12T04:46:30.416Z,9.98
2023-05-12T04:48:57.088Z,9.52
2023-05-12T04:51:23.713Z,10.55
2023-05-12T04:53:50.256Z,10.35
2023-05-12T04:56:16.899Z,7.47
2023-05-12T04:58:43.432Z,5.30
2023-05-12T05:01:12.278Z,7.35
2023-05-12T05:03:39.759Z,7.82
2023-05-12T05:06:06.908Z,7.03
2023-05-12T05:08:33.445Z,7.20
2023-05-12T05:11:00.084Z,7.88
2023-05-12T05:13:26.604Z,7.75
2023-05-12T05:15:54.433Z,6.32
2023-05-12T05:18:24.088Z,7.10
2023-05-12T05:20:57.670Z,7.65
2023-05-12T05:23:25.964Z,7.13
2023-05-12T05:25:52.857Z,6.93
2023-05-12T05:28:19.380Z,6.90
2023-05-12T05:30:45.971Z,7.57
2023-05-12T05:33:13.367Z,7.43
2023-05-12T05:35:40.485Z,7.40
2023-05-12T05:38:07.144Z,7.22
2023-05-12T05:40:44.832Z,7.38
2023-05-12T05:43:15.809Z,8.05
2023-05-12T05:45:42.428Z,7.95
2023-05-12T05:48:09.008Z,8.15
2023-05-12T05:50:35.836Z,8.00
2023-05-12T05:53:02.369Z,8.18
2023-05-12T05:55:28.888Z,7.63
2023-05-12T05:57:55.385Z,8.02
2023-05-12T06:00:22.494Z,8.55
2023-05-12T06:02:49.239Z,8.55
2023-05-12T06:05:15.929Z,8.88
2023-05-12T06:07:42.551Z,8.45
2023-05-12T06:10:09.187Z,7.40
2023-05-12T06:12:35.768Z,7.70
2023-05-12T06:15:02.297Z,7.10
2023-05-12T06:17:30.318Z,7.03
2023-05-12T06:19:58.712Z,6.78
2023-05-12T06:22:25.307Z,6.38
2023-05-12T06:24:52.479Z,6.38
2023-05-12T06:27:19.124Z,7.53
2023-05-12T06:29:45.850Z,7.72
2023-05-12T06:32:12.693Z,7.80
2023-05-12T06:34:39.292Z,7.97
2023-05-12T06:37:06.103Z,8.25
2023-05-12T06:39:32.603Z,8.35
2023-05-12T06:41:59.093Z,7.40
2023-05-12T06:44:25.723Z,8.85
2023-05-12T06:46:52.676Z,8.35
2023-05-12T06:49:19.264Z,9.02
2023-05-12T06:51:46.509Z,7.97
2023-05-12T06:54:13.087Z,9.57
2023-05-12T06:56:39.688Z,8.20
2023-05-12T06:59:06.261Z,8.20
2023-05-12T07:01:33.233Z,8.55
2023-05-12T07:04:00.475Z,9.18
2023-05-12T07:06:27.939Z,8.07
2023-05-12T07:08:55.385Z,7.22
2023-05-12T07:11:22.868Z,8.00
2023-05-12T07:13:50.902Z,7.57
2023-05-12T07:16:18.749Z,8.15
2023-05-12T07:18:46.222Z,7.63
2023-05-12T07:21:13.476Z,9.02
2023-05-12T07:23:40.546Z,7.97
2023-05-12T07:26:07.798Z,7.88
2023-05-12T07:28:36.683Z,8.18
2023-05-12T07:31:07.450Z,7.22
2023-05-12T07:33:36.618Z,7.57
2023-05-12T07:36:04.744Z,7.25
2023-05-12T07:38:32.013Z,7.47
2023-05-12T07:40:59.370Z,7.80
2023-05-12T07:43:26.003Z,7.60
2023-05-12T07:45:52.699Z,8.02
2023-05-12T07:48:19.527Z,6.30
2023-05-12T07:50:46.080Z,7.57
2023-05-12T07:53:12.649Z,8.05
2023-05-12T07:55:39.182Z,6.38
2023-05-12T07:58:05.751Z,6.80
2023-05-12T08:00:32.437Z,8.57
2023-05-12T08:02:59.184Z,7.82
2023-05-12T08:05:25.955Z,6.32
2023-05-12T08:07:52.551Z,6.68
2023-05-12T08:10:19.681Z,7.38
2023-05-12T08:12:46.645Z,8.65
2023-05-12T08:15:13.292Z,8.25
2023-05-12T08:17:39.871Z,8.57
2023-05-12T08:20:07.158Z,6.55
2023-05-12T08:22:33.872Z,7.30
2023-05-12T08:25:00.443Z,8.85
2023-05-12T08:27:27.033Z,7.80
2023-05-12T08:29:53.626Z,8.55
2023-05-12T08:32:20.318Z,7.95
2023-05-12T08:34:47.014Z,8.63
2023-05-12T08:37:14.051Z,8.20
2023-05-12T08:39:40.961Z,8.23
2023-05-12T08:42:22.558Z,7.93
2023-05-12T08:44:49.746Z,7.57
2023-05-12T08:47:18.806Z,7.75
2023-05-12T08:49:51.084Z,8.23
2023-05-12T08:52:22.174Z,7.47
2023-05-12T08:54:55.877Z,11.18
2023-05-12T08:57:23.725Z,18.13
2023-05-12T08:59:56.030Z,12.88
2023-05-12T09:02:24.500Z,28.50
2023-05-12T09:04:52.215Z,11.05
2023-05-12T09:07:19.923Z,8.93
2023-05-12T09:09:48.885Z,11.90
2023-05-12T09:12:18.217Z,8.93
2023-05-12T09:14:49.505Z,8.25
2023-05-12T09:17:16.089Z,8.45
2023-05-12T09:19:42.618Z,8.88
2023-05-12T09:22:14.791Z,6.20
2023-05-12T09:24:41.478Z,7.82
2023-05-12T09:27:08.141Z,7.25
2023-05-12T09:29:42.492Z,7.05
2023-05-12T09:32:18.305Z,6.75
2023-05-12T09:34:44.883Z,7.13
2023-05-12T09:37:12.717Z,7.50
2023-05-12T09:39:41.098Z,7.07
2023-05-12T09:42:12.696Z,6.80
2023-05-12T09:44:40.936Z,6.55
2023-05-12T09:47:08.287Z,6.25
2023-05-12T09:49:34.803Z,5.32
2023-05-12T09:52:01.550Z,5.70
2023-05-12T09:54:29.423Z,5.57
2023-05-12T09:56:59.734Z,5.88
2023-05-12T09:59:34.185Z,6.03
2023-05-12T10:02:05.554Z,7.22
2023-05-12T10:04:40.205Z,7.40
2023-05-12T10:07:10.051Z,7.13
2023-05-12T10:09:42.387Z,7.40
2023-05-12T10:12:10.028Z,8.60
2023-05-12T10:14:37.358Z,6.80
2023-05-12T10:17:06.989Z,7.45
2023-05-12T10:19:35.968Z,6.63
2023-05-12T10:22:04.022Z,7.45
2023-05-12T10:24:30.659Z,7.57
2023-05-12T10:26:59.412Z,7.43
2023-05-12T10:29:30.502Z,7.15
2023-05-12T10:31:57.979Z,7.53
2023-05-12T10:34:30.410Z,7.35
2023-05-12T10:36:58.341Z,6.28
2023-05-12T10:39:29.764Z,7.95
2023-05-12T10:42:08.687Z,6.80
2023-05-12T10:44:36.767Z,6.80
2023-05-12T10:47:13.788Z,5.80
2023-05-12T10:49:41.903Z,5.30
2023-05-12T10:52:11.553Z,5.47
2023-05-12T10:54:44.243Z,6.13
2023-05-12T10:57:18.506Z,6.22
2023-05-12T10:59:57.646Z,5.85
2023-05-12T11:02:30.992Z,5.88
2023-05-12T11:05:00.874Z,5.00
2023-05-12T11:07:30.502Z,4.93
2023-05-12T11:10:01.539Z,4.68
2023-05-12T11:12:34.011Z,3.80
2023-05-12T11:17:28.272Z,3.70
2023-05-12T11:19:55.611Z,3.35
2023-05-12T11:22:23.395Z,3.03
2023-05-12T11:24:51.145Z,2.70
2023-05-12T11:27:19.909Z,2.80
2023-05-12T11:29:59.717Z,3.10
2023-05-12T11:32:27.108Z,3.22
2023-05-12T11:34:53.781Z,3.08
2023-05-12T11:37:21.388Z,3.10
2023-05-12T11:39:48.510Z,3.35
2023-05-12T11:42:17.006Z,3.33
2023-05-12T11:44:50.444Z,2.57
2023-05-12T11:47:19.099Z,2.70
2023-05-12T11:49:54.831Z,2.55
2023-05-12T11:52:23.152Z,2.78
2023-05-12T11:55:06.059Z,2.45
2023-05-12T11:57:36.138Z,2.65
2023-05-12T12:00:08.002Z,2.72
2023-05-12T12:05:03.087Z,2.55
2023-05-12T12:07:31.773Z,2.47
2023-05-12T12:09:58.840Z,2.63
2023-05-12T12:12:25.634Z,2.40
2023-05-12T12:14:52.186Z,2.55
2023-05-12T12:17:18.732Z,2.97
2023-05-12T12:19:47.827Z,3.03
2023-05-12T12:22:14.523Z,2.60
2023-05-12T12:24:41.048Z,2.55
2023-05-12T12:27:07.668Z,2.83
2023-05-12T12:29:34.285Z,2.70
2023-05-12T12:32:00.834Z,2.88
2023-05-12T12:34:27.392Z,3.15
2023-05-12T12:36:53.987Z,3.10
2023-05-12T12:39:21.832Z,3.00
2023-05-12T12:41:48.437Z,2.90
2023-05-12T12:44:15.092Z,3.03
2023-05-12T12:46:42.049Z,2.20
2023-05-12T12:49:08.591Z,2.20
2023-05-12T12:51:44.921Z,2.53
2023-05-12T12:54:11.947Z,2.67
2023-05-12T12:56:38.455Z,2.17
2023-05-12T12:59:04.971Z,2.90
2023-05-12T13:01:33.963Z,2.90
2023-05-12T13:04:01.205Z,2.70
2023-05-12T13:06:27.759Z,2.50
2023-05-12T13:08:54.258Z,2.30
2023-05-12T13:11:20.901Z,2.50
2023-05-12T13:13:47.457Z,2.40
2023-05-12T13:16:14.078Z,2.55
2023-05-12T13:18:40.736Z,2.30
2023-05-12T13:21:07.371Z,2.10
2023-05-12T13:23:33.890Z,2.03
2023-05-12T13:26:00.561Z,1.92
2023-05-12T13:28:27.088Z,2.33
2023-05-12T13:30:53.798Z,2.10
2023-05-12T13:33:20.520Z,1.90
2023-05-12T13:35:47.075Z,1.80
2023-05-12T13:38:13.822Z,1.33
2023-05-12T13:40:41.577Z,1.92
2023-05-12T13:43:08.532Z,1.50
2023-05-12T13:45:35.074Z,1.60
2023-05-12T13:48:01.680Z,1.10
2023-05-12T13:50:33.324Z,1.50
2023-05-12T13:55:27.199Z,1.30
2023-05-12T13:57:53.930Z,1.40
2023-05-12T14:00:20.666Z,1.20
2023-05-12T14:02:47.374Z,1.23
2023-05-12T14:05:14.010Z,1.60
2023-05-12T14:07:42.607Z,1.20
2023-05-12T14:10:10.057Z,1.50
2023-05-12T14:12:37.128Z,1.60
2023-05-12T14:15:19.953Z,1.70
2023-05-12T14:17:50.833Z,1.60
2023-05-12T14:20:17.440Z,1.42
2023-05-12T14:22:43.957Z,0.95
2023-05-12T14:25:10.640Z,1.30
2023-05-12T14:27:37.574Z,1.15
2023-05-12T14:30:05.902Z,1.20
2023-05-12T14:32:34.283Z,1.70
2023-05-12T14:35:01.004Z,1.30
2023-05-12T14:37:27.577Z,1.63
2023-05-12T14:39:56.737Z,1.52
2023-05-12T14:42:23.794Z,1.80
2023-05-12T14:44:50.368Z,1.80
2023-05-12T14:47:16.931Z,1.85
2023-05-12T14:49:45.434Z,1.50
2023-05-12T14:52:12.321Z,1.77
2023-05-12T14:54:38.871Z,1.52
2023-05-12T14:57:05.934Z,1.83
2023-05-12T14:59:32.800Z,1.50
2023-05-12T15:01:59.536Z,1.45
2023-05-12T15:04:27.224Z,1.60
2023-05-12T15:06:53.836Z,1.67
2023-05-12T15:09:20.398Z,1.40
2023-05-12T15:11:46.954Z,1.40
2023-05-12T15:14:13.659Z,1.50
2023-05-12T15:16:40.272Z,1.58
2023-05-12T15:19:07.028Z,1.50
2023-05-12T15:21:34.836Z,1.30
2023-05-12T15:24:02.211Z,1.23
2023-05-12T15:26:33.583Z,1.60
2023-05-12T15:29:01.953Z,1.63
2023-05-12T15:31:29.932Z,1.55
2023-05-12T15:33:57.196Z,1.30
2023-05-12T15:36:24.234Z,1.50
2023-05-12T15:38:50.815Z,1.20
2023-05-12T15:41:17.776Z,1.90
2023-05-12T15:43:44.394Z,1.10
2023-05-12T15:46:11.639Z,1.40
2023-05-12T15:48:39.295Z,1.30
2023-05-12T15:51:06.953Z,1.10
2023-05-12T15:53:33.834Z,1.27
2023-05-12T15:56:01.609Z,0.90
2023-05-12T15:58:28.682Z,1.20
2023-05-12T16:00:56.215Z,1.02
2023-05-12T16:03:23.868Z,1.08
2023-05-12T16:05:50.910Z,1.00
2023-05-12T16:08:17.614Z,1.10
2023-05-12T16:10:44.365Z,1.33
2023-05-12T16:13:10.989Z,1.20
2023-05-12T16:15:37.546Z,1.40
2023-05-12T16:18:05.931Z,1.42
2023-05-12T16:20:34.406Z,1.60
2023-05-12T16:23:01.065Z,1.48
2023-05-12T16:25:27.598Z,1.35
2023-05-12T16:27:54.114Z,1.60
2023-05-12T16:30:20.983Z,2.00
2023-05-12T16:32:47.690Z,1.98
2023-05-12T16:35:14.567Z,2.17
2023-05-12T16:37:41.434Z,2.00
2023-05-12T16:40:09.519Z,1.95
2023-05-12T16:42:36.671Z,2.03
2023-05-12T16:45:03.549Z,2.20
2023-05-12T16:47:30.213Z,2.00
2023-05-12T16:49:58.209Z,2.30
2023-05-12T16:52:25.925Z,2.22
2023-05-12T16:54:53.195Z,2.50
2023-05-12T16:57:20.259Z,2.67
2023-05-12T16:59:48.419Z,3.15
2023-05-12T17:02:15.529Z,2.70
2023-05-12T17:04:42.600Z,2.80
2023-05-12T17:07:09.763Z,2.45
2023-05-12T17:09:36.710Z,3.00
2023-05-12T17:12:04.680Z,2.83
2023-05-12T17:14:31.368Z,3.20
2023-05-12T17:16:58.003Z,3.03
2023-05-12T17:19:24.734Z,3.15
2023-05-12T17:21:51.442Z,3.40
2023-05-12T17:24:18.124Z,2.60
2023-05-12T17:26:45.016Z,2.80
2023-05-12T17:29:12.005Z,2.72
2023-05-12T17:31:38.863Z,2.90
2023-05-12T17:34:05.836Z,3.03
2023-05-12T17:36:33.001Z,3.40
2023-05-12T17:39:00.060Z,3.40
2023-05-12T17:41:29.005Z,3.17
2023-05-12T17:43:55.859Z,3.20
2023-05-12T17:46:23.075Z,3.15
2023-05-12T17:48:49.836Z,3.17
2023-05-12T17:51:17.043Z,2.90
2023-05-12T17:53:43.761Z,3.20
2023-05-12T17:56:10.488Z,3.13
2023-05-12T17:58:37.107Z,3.20
2023-05-12T18:01:03.890Z,2.80
2023-05-12T18:03:30.520Z,2.90
2023-05-12T18:05:57.132Z,3.00
2023-05-12T18:08:23.785Z,2.83
2023-05-12T18:10:51.158Z,2.95
2023-05-12T18:13:17.746Z,2.83
2023-05-12T18:15:44.537Z,2.88
2023-05-12T18:18:11.278Z,3.03
2023-05-12T18:20:38.112Z,3.03
2023-05-12T18:23:04.831Z,3.60
2023-05-12T18:25:31.360Z,3.03
2023-05-12T18:27:58.024Z,3.45
2023-05-12T18:30:24.602Z,3.47
2023-05-12T18:32:51.271Z,3.40
2023-05-12T18:35:18.064Z,3.30
2023-05-12T18:37:44.953Z,3.20
2023-05-12T18:40:12.169Z,2.92
2023-05-12T18:42:38.978Z,3.05
2023-05-12T18:45:06.321Z,3.00
2023-05-12T18:47:33.584Z,3.70
2023-05-12T18:50:00.256Z,3.38
2023-05-12T18:52:26.888Z,3.15
2023-05-12T18:54:53.412Z,3.53
2023-05-12T18:57:19.999Z,3.65
2023-05-12T18:59:46.525Z,3.90
2023-05-12T19:02:13.132Z,3.60
2023-05-12T19:04:39.758Z,3.85
2023-05-12T19:07:09.924Z,3.72
2023-05-12T19:09:37.066Z,3.50
2023-05-12T19:12:05.971Z,3.55
2023-05-12T19:14:32.817Z,3.70
2023-05-12T19:16:59.403Z,4.00
2023-05-12T19:19:26.027Z,3.80
2023-05-12T19:21:52.573Z,3.63
2023-05-12T19:24:19.512Z,3.72
2023-05-12T19:26:46.248Z,3.60
2023-05-12T19:29:12.792Z,3.67
2023-05-12T19:31:39.517Z,3.78
2023-05-12T19:34:06.296Z,3.42
2023-05-12T19:36:33.019Z,3.30
2023-05-12T19:39:00.452Z,3.20
2023-05-12T19:41:30.945Z,3.13
2023-05-12T19:43:57.460Z,3.55
2023-05-12T19:46:24.177Z,3.50
2023-05-12T19:48:52.743Z,3.70
2023-05-12T19:51:19.334Z,3.45
2023-05-12T19:53:45.871Z,3.63
2023-05-12T19:56:12.434Z,3.38
2023-05-12T19:58:40.067Z,3.60
2023-05-12T20:01:06.817Z,3.30
2023-05-12T20:03:33.551Z,3.05
2023-05-12T20:06:00.187Z,2.80
2023-05-12T20:08:26.710Z,2.80
2023-05-12T20:10:53.272Z,2.63
2023-05-12T20:13:19.820Z,2.60
2023-05-12T20:15:46.804Z,3.10
2023-05-12T20:18:15.579Z,3.47
2023-05-12T20:20:43.155Z,2.60
2023-05-12T20:23:09.893Z,2.95
2023-05-12T20:25:36.667Z,2.88
2023-05-12T20:28:03.289Z,3.13
2023-05-12T20:30:30.034Z,2.40
2023-05-12T20:32:56.669Z,2.70
2023-05-12T20:35:23.475Z,3.08
2023-05-12T20:37:50.700Z,2.50
2023-05-12T20:40:17.486Z,2.70
2023-05-12T20:42:49.020Z,2.70
2023-05-12T20:45:16.353Z,2.35
2023-05-12T20:47:42.943Z,2.10
2023-05-12T20:50:10.806Z,2.50
2023-05-12T20:52:38.803Z,2.33
2023-05-12T20:55:06.878Z,2.17
2023-05-12T20:57:33.820Z,2.30
2023-05-12T21:00:00.609Z,2.30
2023-05-12T21:02:29.032Z,2.03
2023-05-12T21:04:56.087Z,2.05
2023-05-12T21:07:22.646Z,2.30
2023-05-12T21:09:49.281Z,2.10
2023-05-12T21:12:16.091Z,2.00
2023-05-12T21:14:43.866Z,2.38
2023-05-12T21:17:11.194Z,2.05
2023-05-12T21:19:39.272Z,1.90
2023-05-12T21:22:07.324Z,2.00
2023-05-12T21:24:33.929Z,2.17
2023-05-12T21:27:04.727Z,2.08
2023-05-12T21:29:32.347Z,2.13
2023-05-12T21:31:59.267Z,2.28
2023-05-12T21:34:26.380Z,2.53
2023-05-12T21:36:53.109Z,2.22
2023-05-12T21:39:19.672Z,2.58
2023-05-12T21:41:46.517Z,3.03
2023-05-12T21:44:13.092Z,2.85
2023-05-12T21:46:40.013Z,2.53
2023-05-12T21:49:06.672Z,2.22
2023-05-12T21:51:33.366Z,2.33
2023-05-12T21:54:00.758Z,2.40
2023-05-12T21:56:27.268Z,2.70
2023-05-12T21:58:53.870Z,2.30
2023-05-12T22:01:20.531Z,2.35
2023-05-12T22:03:47.205Z,2.50
2023-05-12T22:06:13.840Z,2.30
2023-05-12T22:08:40.389Z,2.15
2023-05-12T22:11:07.000Z,2.45
2023-05-12T22:13:33.682Z,2.50
2023-05-12T22:16:00.309Z,2.50
2023-05-12T22:18:27.510Z,2.70
2023-05-12T22:20:54.157Z,2.40
2023-05-12T22:23:20.916Z,2.17
2023-05-12T22:25:47.463Z,2.75
2023-05-12T22:28:14.059Z,2.53
2023-05-12T22:30:41.893Z,2.38
2023-05-12T22:33:08.681Z,2.67
2023-05-12T22:35:35.372Z,2.50
2023-05-12T22:38:01.990Z,2.10
2023-05-12T22:40:29.188Z,2.38
2023-05-12T22:42:55.751Z,2.60
2023-05-12T22:45:22.327Z,2.97
2023-05-12T22:47:49.056Z,2.50
2023-05-12T22:50:16.147Z,2.83
2023-05-12T22:52:42.843Z,2.45
2023-05-12T22:55:10.099Z,2.95
2023-05-12T22:57:38.726Z,2.78
2023-05-12T23:00:06.465Z,2.40
2023-05-12T23:02:33.165Z,2.97
2023-05-12T23:04:59.829Z,3.00
2023-05-12T23:07:26.516Z,2.80
2023-05-12T23:09:53.055Z,2.88
2023-05-12T23:12:19.608Z,2.60
2023-05-12T23:14:46.180Z,2.90
2023-05-12T23:17:12.835Z,3.10
2023-05-12T23:19:40.205Z,3.42
2023-05-12T23:22:06.950Z,2.83
2023-05-12T23:24:34.159Z,2.88
2023-05-12T23:27:00.901Z,2.95
2023-05-12T23:29:27.579Z,3.42
2023-05-12T23:31:54.129Z,3.08
2023-05-12T23:34:20.863Z,3.17
2023-05-12T23:36:47.497Z,3.30
2023-05-12T23:39:14.041Z,3.70
2023-05-12T23:41:40.635Z,3.10
2023-05-12T23:44:07.260Z,3.40
2023-05-12T23:46:34.173Z,3.40
2023-05-12T23:49:01.009Z,3.63
2023-05-12T23:51:28.547Z,3.45
2023-05-12T23:53:55.274Z,3.53
2023-05-12T23:56:22.399Z,3.17
2023-05-12T23:58:49.258Z,3.63
